Time;durP1;ratioP1;P1;durP2;ratioP2;P2;SDS_P1;SDS_P2;PMS_P1;PMS_P2;Temp;Humidity;BMP_temperature;BMP_pressure;BME280_temperature;BME280_humidity;BME280_pressure;Samples;Min_cycle;Max_cycle;Signal;HPM_P1;HPM_P2
2021/10/06 00:01:52;;;;;;;;;1.00;1.00;;;;;13.57;70.61;101294.75;4954167;28;53448;-76
2021/10/06 00:04:17;;;;;;;;;8.33;0.00;;;;;13.54;70.74;101302.72;4955874;28;46027;-76
2021/10/06 00:06:43;;;;;;;;;0.00;0.00;;;;;13.51;70.00;101314.19;4955254;28;47447;-76
2021/10/06 00:09:08;;;;;;;;;2.67;0.00;;;;;13.51;70.56;101303.56;4956592;28;45276;-76
2021/10/06 00:11:34;;;;;;;;;2.33;1.00;;;;;13.48;70.38;101300.94;4946842;28;47242;-76
2021/10/06 00:13:59;;;;;;;;;1.00;1.00;;;;;13.53;70.25;101308.88;4952544;28;45383;-76
2021/10/06 00:16:24;;;;;;;;;0.00;0.00;;;;;13.53;70.07;101319.50;4955540;28;61006;-76
2021/10/06 00:18:50;;;;;;;;;1.00;0.00;;;;;13.47;70.31;101311.50;4953751;28;52105;-76
2021/10/06 00:21:15;;;;;;;;;1.00;1.00;;;;;13.51;70.00;101331.88;4955700;28;56725;-77
2021/10/06 00:23:41;;;;;;;;;4.67;0.00;;;;;13.50;70.17;101322.16;4949705;28;45352;-76
2021/10/06 00:26:06;;;;;;;;;1.67;0.00;;;;;13.49;70.43;101329.22;4955142;28;47428;-76
2021/10/06 00:28:32;;;;;;;;;0.00;0.00;;;;;13.46;70.44;101330.94;4956041;28;45391;-77
2021/10/06 00:30:57;;;;;;;;;2.00;0.00;;;;;13.44;70.15;101335.38;4956166;28;45541;-76
2021/10/06 00:33:25;;;;;;;;;0.33;0.00;;;;;13.38;70.45;101330.91;4951809;28;51465;-76
2021/10/06 00:35:50;;;;;;;;;1.00;0.00;;;;;13.43;70.73;101345.09;4949842;28;47365;-76
2021/10/06 00:38:16;;;;;;;;;2.00;0.33;;;;;13.44;70.64;101336.25;4954568;28;45188;-76
2021/10/06 00:40:41;;;;;;;;;0.00;0.00;;;;;13.47;70.37;101346.00;4954379;28;45370;-76
2021/10/06 00:43:07;;;;;;;;;2.00;0.00;;;;;13.48;70.35;101351.31;4955030;28;50667;-76
2021/10/06 00:45:32;;;;;;;;;2.00;0.00;;;;;13.50;70.34;101359.28;4955375;28;47270;-76
2021/10/06 00:47:57;;;;;;;;;5.67;1.00;;;;;13.45;70.35;101346.00;4955630;28;45379;-77
2021/10/06 00:50:23;;;;;;;;;0.67;0.33;;;;;13.55;70.41;101352.25;4955933;28;48660;-76
2021/10/06 00:52:48;;;;;;;;;1.33;1.00;;;;;13.56;70.17;101362.88;4951692;28;48034;-76
2021/10/06 00:55:14;;;;;;;;;1.00;1.00;;;;;13.56;70.60;101357.56;4955563;28;59364;-77
2021/10/06 00:57:40;;;;;;;;;1.33;0.33;;;;;13.52;70.03;101360.19;4955452;28;45547;-76
2021/10/06 01:00:06;;;;;;;;;2.00;1.00;;;;;13.48;70.28;101351.31;4955942;28;45504;-76
2021/10/06 01:02:31;;;;;;;;;1.00;0.00;;;;;13.43;70.10;101352.19;4955324;28;45490;-77
2021/10/06 01:04:56;;;;;;;;;3.00;0.67;;;;;13.39;70.28;101359.22;4947140;28;63965;-77
2021/10/06 01:07:22;;;;;;;;;2.00;0.00;;;;;13.37;70.49;101360.97;4953145;28;48910;-76
2021/10/06 01:09:47;;;;;;;;;0.33;0.00;;;;;13.30;70.51;101356.47;4950783;28;45348;-76
2021/10/06 01:12:13;;;;;;;;;2.00;0.67;;;;;13.32;70.36;101357.41;4954311;28;51906;-76
2021/10/06 01:14:38;;;;;;;;;0.00;0.00;;;;;13.25;70.33;101359.09;4951039;28;48201;-76
2021/10/06 01:17:03;;;;;;;;;1.00;0.67;;;;;13.29;70.89;101367.97;4949098;28;55640;-76
2021/10/06 01:19:29;;;;;;;;;3.00;0.00;;;;;13.22;70.64;101359.06;4954466;28;45506;-76
2021/10/06 01:21:55;;;;;;;;;2.33;0.00;;;;;13.27;70.46;101372.38;4955189;28;45258;-76
2021/10/06 01:24:21;;;;;;;;;4.00;0.00;;;;;13.28;70.83;101368.84;4949835;28;47766;-76
2021/10/06 01:26:46;;;;;;;;;2.00;0.00;;;;;13.30;71.01;101367.06;4955482;28;45455;-76
2021/10/06 01:29:13;;;;;;;;;2.00;0.67;;;;;13.34;70.87;101374.19;4950642;28;45446;-77
2021/10/06 01:31:39;;;;;;;;;1.33;0.00;;;;;13.35;70.98;101374.19;4948918;28;45528;-76
2021/10/06 01:34:04;;;;;;;;;2.00;1.00;;;;;13.36;71.31;101369.78;4946989;28;62236;-77
2021/10/06 01:36:29;;;;;;;;;2.00;1.00;;;;;13.38;71.08;101370.69;4948325;28;58435;-76
2021/10/06 01:38:55;;;;;;;;;2.33;1.00;;;;;13.34;71.61;101391.00;4953497;28;55791;-76
2021/10/06 01:41:20;;;;;;;;;4.00;1.00;;;;;13.33;71.19;101383.91;4956489;28;45402;-77
2021/10/06 01:43:45;;;;;;;;;2.00;1.00;;;;;13.29;71.17;101387.41;4955731;28;47347;-76
2021/10/06 01:46:11;;;;;;;;;2.00;0.67;;;;;13.27;71.26;101381.22;4955729;28;45425;-76
2021/10/06 01:48:36;;;;;;;;;1.00;1.00;;;;;13.27;71.28;101389.19;4955704;28;45486;-76
2021/10/06 01:51:02;;;;;;;;;0.00;0.00;;;;;13.25;71.46;101395.31;4956220;28;45290;-77
2021/10/06 01:53:37;;;;;;;;;3.67;1.00;;;;;13.22;71.41;101384.72;4955643;28;47177;-76
2021/10/06 01:56:03;;;;;;;;;0.67;0.67;;;;;13.17;71.67;101383.75;4955948;28;45289;-77
2021/10/06 01:58:28;;;;;;;;;3.33;1.00;;;;;13.14;71.33;101391.66;4955606;28;45355;-76
2021/10/06 02:00:54;;;;;;;;;0.00;0.00;;;;;13.11;71.73;101400.47;4954557;28;54508;-76
2021/10/06 02:03:19;;;;;;;;;3.00;1.00;;;;;13.11;71.47;101385.47;4941330;28;55939;-76
2021/10/06 02:05:44;;;;;;;;;1.67;1.00;;;;;13.08;71.61;101382.75;4955786;28;45375;-76
2021/10/06 02:08:10;;;;;;;;;2.33;1.00;;;;;13.10;71.63;101386.34;4955359;28;45181;-76
2021/10/06 02:10:36;;;;;;;;;2.67;0.67;;;;;13.06;71.52;101386.28;4955678;28;45470;-76
2021/10/06 02:13:01;;;;;;;;;1.00;1.00;;;;;13.04;71.81;101375.66;4955043;28;46494;-76
2021/10/06 02:15:27;;;;;;;;;2.00;1.00;;;;;13.06;71.60;101387.19;4955685;28;45216;-76
2021/10/06 02:17:52;;;;;;;;;4.00;1.00;;;;;13.05;71.87;101392.47;4955162;28;50595;-76
2021/10/06 02:20:18;;;;;;;;;2.00;1.00;;;;;13.02;71.77;101395.97;4942942;28;45208;-76
2021/10/06 02:22:43;;;;;;;;;0.00;0.00;;;;;13.02;72.06;101393.31;4955189;28;47226;-76
2021/10/06 02:25:09;;;;;;;;;1.00;1.00;;;;;13.00;71.97;101381.81;4955615;28;45262;-77
2021/10/06 02:27:34;;;;;;;;;0.00;0.00;;;;;13.01;71.71;101394.19;4954311;28;45364;-77
2021/10/06 02:30:00;;;;;;;;;0.00;0.00;;;;;13.00;71.79;101391.53;4954297;28;52994;-76
2021/10/06 02:32:25;;;;;;;;;2.00;0.00;;;;;12.92;71.63;101383.50;4947859;28;60526;-77
2021/10/06 02:34:50;;;;;;;;;2.00;0.33;;;;;12.92;71.74;101393.22;4945171;28;46273;-76
2021/10/06 02:37:16;;;;;;;;;4.33;0.67;;;;;12.94;72.16;101405.59;4952084;28;45642;-77
2021/10/06 02:39:41;;;;;;;;;0.33;0.00;;;;;12.94;71.97;101407.34;4951149;28;48534;-77
2021/10/06 02:42:06;;;;;;;;;1.00;0.00;;;;;12.94;72.20;101410.00;4947820;28;46539;-76
2021/10/06 02:44:32;;;;;;;;;2.00;0.67;;;;;12.94;71.76;101413.53;4954110;28;59358;-76
2021/10/06 02:46:58;;;;;;;;;0.33;0.33;;;;;12.92;72.02;101412.66;4953589;28;45831;-77
2021/10/06 02:49:23;;;;;;;;;1.33;0.67;;;;;12.89;71.94;101409.06;4952960;28;45470;-76
2021/10/06 02:51:48;;;;;;;;;0.00;0.00;;;;;12.91;72.23;101413.53;4953869;28;45817;-77
2021/10/06 02:54:14;;;;;;;;;0.67;0.00;;;;;12.90;72.06;101417.06;4946305;28;54050;-77
2021/10/06 02:56:39;;;;;;;;;1.00;1.00;;;;;12.90;72.04;101416.16;4953723;28;52498;-76
2021/10/06 02:59:05;;;;;;;;;3.00;0.00;;;;;12.86;72.04;101420.53;4950755;28;51735;-77
2021/10/06 03:01:30;;;;;;;;;3.00;0.67;;;;;12.83;72.43;101431.97;4952065;28;50472;-76
2021/10/06 03:03:55;;;;;;;;;2.67;0.00;;;;;12.83;72.25;101431.09;4954036;28;52205;-76
2021/10/06 03:06:21;;;;;;;;;2.00;0.67;;;;;12.81;72.20;101428.44;4953538;28;45728;-77
2021/10/06 03:08:46;;;;;;;;;1.00;1.00;;;;;12.80;72.45;101429.31;4953460;28;51247;-76
2021/10/06 03:11:12;;;;;;;;;1.67;0.33;;;;;12.79;72.39;101426.66;4948508;28;46664;-77
2021/10/06 03:13:37;;;;;;;;;3.00;2.00;;;;;12.79;72.18;101439.91;4953942;28;45565;-76
2021/10/06 03:16:02;;;;;;;;;2.00;0.00;;;;;12.80;72.25;101444.31;4952942;28;50724;-77
2021/10/06 03:18:28;;;;;;;;;2.00;0.67;;;;;12.80;72.33;101439.91;4947050;28;45420;-76
2021/10/06 03:20:53;;;;;;;;;2.00;0.00;;;;;12.80;72.55;101436.38;4952478;28;59386;-78
2021/10/06 03:23:19;;;;;;;;;3.00;0.67;;;;;12.78;72.57;101439.00;4951760;28;45473;-76
2021/10/06 03:25:45;;;;;;;;;3.00;0.00;;;;;12.77;72.43;101431.03;4951246;28;45509;-77
2021/10/06 03:28:10;;;;;;;;;3.67;1.00;;;;;12.81;72.43;101449.63;4951551;28;45304;-77
2021/10/06 03:30:35;;;;;;;;;3.00;1.00;;;;;12.78;72.66;101438.09;4953409;28;57394;-77
2021/10/06 03:33:01;;;;;;;;;1.00;0.00;;;;;12.82;72.20;101445.22;4952045;28;57069;-77
2021/10/06 03:35:26;;;;;;;;;2.33;1.00;;;;;12.80;72.35;101453.16;4949521;28;45416;-77
2021/10/06 03:37:52;;;;;;;;;0.67;0.00;;;;;12.79;72.53;101443.44;4954343;28;45480;-78
2021/10/06 03:40:17;;;;;;;;;0.00;0.00;;;;;12.76;72.47;101448.69;4946542;28;46381;-77
2021/10/06 03:42:42;;;;;;;;;1.00;0.00;;;;;12.79;72.41;101456.69;4952843;28;45313;-77
2021/10/06 03:45:09;;;;;;;;;1.00;0.00;;;;;12.77;72.59;101453.09;4950202;28;45866;-77
2021/10/06 03:47:35;;;;;;;;;3.00;1.00;;;;;12.78;72.41;101462.88;4951618;28;45280;-77
2021/10/06 03:50:00;;;;;;;;;2.00;0.00;;;;;12.73;72.44;101456.63;4953766;28;45500;-77
2021/10/06 03:52:26;;;;;;;;;3.67;1.00;;;;;12.77;72.54;101461.06;4952583;28;55833;-77
2021/10/06 03:54:51;;;;;;;;;5.00;0.00;;;;;12.78;72.38;101467.25;4953214;28;51920;-76
2021/10/06 03:57:17;;;;;;;;;1.33;0.00;;;;;12.79;72.41;101480.53;4953134;28;45484;-77
2021/10/06 03:59:42;;;;;;;;;2.67;1.33;;;;;12.80;72.36;101487.63;4952301;28;47197;-77
2021/10/06 04:02:07;;;;;;;;;0.67;0.67;;;;;12.81;72.34;101488.50;4952647;28;45490;-76
2021/10/06 04:04:33;;;;;;;;;2.00;0.33;;;;;12.83;72.57;101495.56;4944522;28;55748;-78
2021/10/06 04:06:58;;;;;;;;;1.33;1.00;;;;;12.83;72.22;101486.75;4952698;28;54879;-77
2021/10/06 04:09:23;;;;;;;;;1.00;0.33;;;;;12.79;72.12;101477.00;4952581;28;60729;-77
2021/10/06 04:11:49;;;;;;;;;0.00;0.00;;;;;12.85;72.24;101499.16;4950104;28;59078;-77
2021/10/06 04:14:14;;;;;;;;;7.00;1.00;;;;;12.84;72.03;101504.44;4956382;28;45402;-77
2021/10/06 04:16:40;;;;;;;;;4.00;1.00;;;;;12.83;72.41;101507.94;4956526;28;45450;-77
2021/10/06 04:19:05;;;;;;;;;2.00;0.33;;;;;12.80;72.18;101511.47;4956030;28;56002;-77
2021/10/06 04:21:30;;;;;;;;;2.67;0.00;;;;;12.78;72.15;101505.25;4952416;28;45498;-77
2021/10/06 04:23:56;;;;;;;;;0.33;0.33;;;;;12.78;72.17;101512.28;4951010;28;51514;-78
2021/10/06 04:26:21;;;;;;;;;3.00;1.00;;;;;12.76;72.23;101509.63;4953706;28;45754;-78
2021/10/06 04:28:46;;;;;;;;;1.00;0.00;;;;;12.69;72.15;101489.25;4948871;28;46217;-76
2021/10/06 04:31:12;;;;;;;;;1.00;0.00;;;;;12.72;72.27;101497.22;4948144;28;59115;-77
2021/10/06 04:33:37;;;;;;;;;0.33;0.00;;;;;12.73;72.23;101487.50;4951444;28;45245;-76
2021/10/06 04:36:03;;;;;;;;;1.00;0.00;;;;;12.71;72.38;101497.19;4954762;28;45733;-77
2021/10/06 04:38:28;;;;;;;;;0.00;0.00;;;;;12.71;72.32;101494.53;4955111;28;47863;-77
2021/10/06 04:40:54;;;;;;;;;2.00;0.00;;;;;12.68;72.17;101494.53;4953475;28;56387;-77
2021/10/06 04:43:19;;;;;;;;;6.00;2.00;;;;;12.64;72.31;101492.69;4956002;28;45567;-77
2021/10/06 04:45:45;;;;;;;;;0.00;0.00;;;;;12.68;72.57;101505.13;4956129;28;45341;-76
2021/10/06 04:48:10;;;;;;;;;2.67;0.00;;;;;12.66;72.55;101512.16;4956093;28;47737;-77
2021/10/06 04:50:35;;;;;;;;;1.00;0.00;;;;;12.61;72.36;101508.53;4955519;28;56032;-77
2021/10/06 04:53:03;;;;;;;;;1.00;0.00;;;;;12.65;72.41;101536.88;4951873;28;56572;-77
2021/10/06 04:55:28;;;;;;;;;1.00;1.00;;;;;12.64;72.64;101532.44;4953745;28;45521;-78
2021/10/06 04:57:54;;;;;;;;;0.00;0.00;;;;;12.64;72.38;101535.09;4944957;28;46531;-77
2021/10/06 05:00:20;;;;;;;;;0.33;0.33;;;;;12.58;72.50;101526.19;4954512;28;45371;-77
2021/10/06 05:02:45;;;;;;;;;0.00;0.00;;;;;12.63;72.44;101538.63;4952592;28;45444;-77
2021/10/06 05:05:11;;;;;;;;;1.00;1.00;;;;;12.60;72.83;101539.44;4953742;28;54100;-77
2021/10/06 05:07:36;;;;;;;;;2.00;0.00;;;;;12.61;72.58;101550.94;4955129;28;62153;-77
2021/10/06 05:10:02;;;;;;;;;0.33;0.33;;;;;12.57;72.89;101545.59;4951987;28;45436;-77
2021/10/06 05:12:27;;;;;;;;;1.00;0.00;;;;;12.58;72.67;101542.09;4955166;28;45491;-78
2021/10/06 05:14:52;;;;;;;;;1.33;0.67;;;;;12.62;72.52;101544.75;4949139;28;45485;-78
2021/10/06 05:17:18;;;;;;;;;3.00;2.00;;;;;12.62;72.79;101539.47;4948333;28;60389;-78
2021/10/06 05:19:43;;;;;;;;;1.00;0.00;;;;;12.61;72.84;101545.63;4954724;28;45302;-77
2021/10/06 05:22:09;;;;;;;;;1.00;1.00;;;;;12.61;72.82;101562.41;4954888;28;56938;-78
2021/10/06 05:24:34;;;;;;;;;2.00;1.00;;;;;12.60;72.58;101565.94;4955852;28;45513;-76
2021/10/06 05:26:59;;;;;;;;;3.67;1.33;;;;;12.62;72.87;101563.31;4954532;28;45536;-75
2021/10/06 05:29:25;;;;;;;;;0.67;0.67;;;;;12.63;72.84;101562.47;4955195;28;58689;-75
2021/10/06 05:31:50;;;;;;;;;3.00;0.00;;;;;12.63;72.68;101551.88;4952166;28;45497;-78
2021/10/06 05:34:15;;;;;;;;;2.00;1.00;;;;;12.61;72.64;101564.19;4950321;28;53764;-82
2021/10/06 05:36:41;;;;;;;;;1.00;1.00;;;;;12.61;72.83;101573.00;4947526;28;52226;-79
2021/10/06 05:39:06;;;;;;;;;3.00;0.67;;;;;12.62;72.81;101571.25;4946595;28;45379;-77
2021/10/06 05:41:32;;;;;;;;;2.67;1.00;;;;;12.59;72.69;101577.41;4952432;28;50839;-78
2021/10/06 05:43:57;;;;;;;;;4.00;1.00;;;;;12.61;72.76;101585.38;4947548;28;53511;-78
2021/10/06 05:46:26;;;;;;;;;3.00;1.00;;;;;12.58;72.82;101580.94;4952871;28;57384;-78
2021/10/06 05:48:51;;;;;;;;;2.00;2.00;;;;;12.58;72.61;101589.78;4955051;28;45304;-77
2021/10/06 05:51:17;;;;;;;;;2.00;0.00;;;;;12.55;72.84;101588.81;4954346;28;45355;-81
2021/10/06 05:53:42;;;;;;;;;1.00;1.00;;;;;12.59;72.79;101594.19;4948512;28;53770;-79
2021/10/06 05:56:07;;;;;;;;;1.00;1.00;;;;;12.57;72.80;101585.34;4953211;28;61820;-80
2021/10/06 05:58:33;;;;;;;;;1.00;1.00;;;;;12.63;72.67;101602.19;4949243;28;55435;-76
2021/10/06 06:00:58;;;;;;;;;0.33;0.00;;;;;12.63;72.62;101599.56;4965953;28;45339;-81
2021/10/06 06:03:24;;;;;;;;;2.00;1.00;;;;;12.63;72.47;101596.91;4951937;28;45481;-81
2021/10/06 06:05:49;;;;;;;;;2.67;1.00;;;;;12.59;72.77;101594.19;4952081;28;46741;-80
2021/10/06 06:08:14;;;;;;;;;0.00;0.00;;;;;12.62;72.75;101584.50;4953448;28;57867;-80
2021/10/06 06:10:40;;;;;;;;;2.00;1.00;;;;;12.61;72.80;101585.38;4952513;28;51997;-79
2021/10/06 06:13:05;;;;;;;;;0.00;0.00;;;;;12.63;72.58;101587.19;4946541;28;45746;-79
2021/10/06 06:15:31;;;;;;;;;2.33;1.00;;;;;12.63;72.65;101591.59;4953215;28;62098;-80
2021/10/06 06:17:56;;;;;;;;;8.33;3.33;;;;;12.58;72.59;101586.22;4952853;28;45487;-80
2021/10/06 06:20:25;;;;;;;;;2.00;0.33;;;;;12.64;72.39;101606.63;4952435;28;45483;-81
2021/10/06 06:22:51;;;;;;;;;0.00;0.00;;;;;12.62;72.70;101600.41;4947672;28;45654;-79
2021/10/06 06:25:17;;;;;;;;;1.00;1.00;;;;;12.57;72.61;101598.59;4952538;28;45916;-79
2021/10/06 06:27:42;;;;;;;;;3.33;1.00;;;;;12.64;72.68;101603.97;4954513;28;45305;-79
2021/10/06 06:30:08;;;;;;;;;2.00;0.33;;;;;12.62;72.75;101611.00;4942510;28;51656;-78
2021/10/06 06:32:33;;;;;;;;;2.00;0.67;;;;;12.56;72.54;101602.09;4949944;28;45362;-82
2021/10/06 06:34:59;;;;;;;;;3.33;2.00;;;;;12.60;72.86;101608.31;4942564;28;46598;-80
2021/10/06 06:37:24;;;;;;;;;3.00;2.00;;;;;12.61;72.84;101609.22;4951415;28;58623;-81
2021/10/06 06:39:49;;;;;;;;;3.00;2.00;;;;;12.62;72.76;101611.88;4950014;28;53289;-82
2021/10/06 06:42:15;;;;;;;;;2.00;2.00;;;;;12.66;72.51;101611.06;4948959;28;56018;-82
2021/10/06 06:44:40;;;;;;;;;1.67;1.00;;;;;12.69;72.77;101618.19;4953029;28;46397;-81
2021/10/06 06:47:06;;;;;;;;;2.00;2.00;;;;;12.71;72.79;101616.44;4951533;28;49555;-80
2021/10/06 06:49:31;;;;;;;;;4.00;2.00;;;;;12.71;72.54;101622.63;4947689;28;45343;-79
2021/10/06 06:51:59;;;;;;;;;2.33;1.67;;;;;12.75;72.52;101636.81;4943591;28;49275;-81
2021/10/06 06:54:24;;;;;;;;;3.00;2.00;;;;;12.75;72.57;101639.47;4940928;28;46408;-77
2021/10/06 06:56:50;;;;;;;;;2.00;2.00;;;;;12.74;72.93;101637.69;4941914;28;45909;-75
2021/10/06 06:59:15;;;;;;;;;4.00;1.00;;;;;12.71;72.71;101638.53;4942713;28;53320;-76
2021/10/06 07:01:41;;;;;;;;;5.67;1.00;;;;;12.71;72.74;101637.63;4941918;28;45529;-75
2021/10/06 07:04:06;;;;;;;;;3.33;1.00;;;;;12.69;72.61;101634.09;4950383;28;45933;-77
2021/10/06 07:06:35;;;;;;;;;3.00;2.00;;;;;12.68;72.69;101637.59;4937391;28;45536;-76
2021/10/06 07:09:02;;;;;;;;;3.33;2.00;;;;;12.66;72.88;101649.91;4936988;28;45478;-77
2021/10/06 07:11:27;;;;;;;;;2.00;0.00;;;;;12.66;73.49;101655.22;4950135;28;45481;-76
2021/10/06 07:13:52;;;;;;;;;8.00;2.00;;;;;12.67;73.08;101663.19;4945072;28;45504;-76
2021/10/06 07:16:18;;;;;;;;;2.33;1.00;;;;;12.72;73.12;101673.84;4941376;28;59952;-76
2021/10/06 07:18:43;;;;;;;;;0.33;0.33;;;;;12.79;72.87;101671.34;4943713;28;54368;-75
2021/10/06 07:21:09;;;;;;;;;4.00;1.33;;;;;12.83;73.20;101667.84;4943996;28;53982;-76
2021/10/06 07:23:35;;;;;;;;;2.00;1.00;;;;;12.89;72.70;101674.13;4947245;28;47379;-75
2021/10/06 07:26:00;;;;;;;;;2.33;2.00;;;;;12.93;72.97;101674.19;4944001;28;58766;-77
2021/10/06 07:28:25;;;;;;;;;1.00;1.00;;;;;12.95;72.48;101675.13;4948948;28;45568;-75
2021/10/06 07:30:51;;;;;;;;;1.67;1.00;;;;;12.99;73.31;101674.28;5058819;23;46232;-78
2021/10/06 07:33:17;;;;;;;;;1.33;1.00;;;;;13.01;72.62;101675.22;4940463;28;46770;-78
2021/10/06 07:35:42;;;;;;;;;5.00;1.00;;;;;13.07;72.52;101671.75;4932756;28;60079;-76
2021/10/06 07:38:07;;;;;;;;;1.00;1.00;;;;;13.07;72.42;101679.69;4938632;28;45386;-76
2021/10/06 07:40:33;;;;;;;;;0.33;0.33;;;;;13.10;72.26;101671.78;4938016;28;45410;-77
2021/10/06 07:42:58;;;;;;;;;0.00;0.00;;;;;13.20;72.13;101678.09;4932743;28;60267;-78
2021/10/06 07:45:24;;;;;;;;;2.00;2.00;;;;;13.26;72.24;101681.78;4956653;28;50711;-77
2021/10/06 07:47:49;;;;;;;;;4.33;1.00;;;;;13.33;72.22;101683.63;4976245;28;45429;-77
2021/10/06 07:50:14;;;;;;;;;3.00;1.00;;;;;13.39;72.03;101688.13;4941689;28;48730;-75
2021/10/06 07:52:40;;;;;;;;;0.00;0.00;;;;;13.39;71.56;101693.44;4934421;28;47391;-78
2021/10/06 07:55:06;;;;;;;;;1.00;0.00;;;;;13.43;71.50;101694.38;4937349;28;45429;-76
2021/10/06 07:57:32;;;;;;;;;1.33;0.33;;;;;13.45;71.76;101696.16;4946982;28;45453;-76
2021/10/06 07:59:57;;;;;;;;;5.33;1.00;;;;;13.49;71.35;101695.34;4933737;28;45537;-79
2021/10/06 08:02:23;;;;;;;;;1.00;1.00;;;;;13.51;71.11;101700.66;4935234;28;54652;-77
2021/10/06 08:04:49;;;;;;;;;5.00;1.00;;;;;13.52;71.45;101697.13;4943396;28;45598;-76
2021/10/06 08:07:14;;;;;;;;;1.33;1.00;;;;;13.58;71.06;101705.16;4934909;28;45533;-76
2021/10/06 08:09:40;;;;;;;;;1.00;1.00;;;;;13.60;70.44;101714.06;4931826;28;47799;-75
2021/10/06 08:12:06;;;;;;;;;3.00;1.00;;;;;13.56;70.65;101702.50;4934757;28;46571;-76
2021/10/06 08:14:32;;;;;;;;;2.00;1.00;;;;;13.65;70.66;101714.13;4947615;28;45526;-74
2021/10/06 08:16:57;;;;;;;;;4.00;1.67;;;;;13.69;70.75;101718.56;4943763;28;53524;-74
2021/10/06 08:19:23;;;;;;;;;3.33;1.00;;;;;13.71;70.32;101730.13;4935481;28;53478;-73
2021/10/06 08:21:48;;;;;;;;;2.33;1.00;;;;;13.73;70.56;101731.91;4946144;28;62911;-74
2021/10/06 08:24:13;;;;;;;;;3.00;2.00;;;;;13.78;70.96;101729.31;4935349;28;45541;-74
2021/10/06 08:26:40;;;;;;;;;1.33;0.67;;;;;13.82;70.70;101732.03;4941166;28;45853;-75
2021/10/06 08:29:05;;;;;;;;;2.67;1.00;;;;;13.86;70.52;101732.97;4935884;28;45349;-74
2021/10/06 08:31:30;;;;;;;;;1.00;1.00;;;;;13.92;70.43;101730.38;4935367;28;45522;-74
2021/10/06 08:33:56;;;;;;;;;3.00;1.00;;;;;13.97;70.52;101727.78;4947245;28;58747;-74
2021/10/06 08:36:21;;;;;;;;;7.00;2.00;;;;;13.99;70.58;101726.91;4932386;28;57483;-74
2021/10/06 08:38:47;;;;;;;;;2.67;0.67;;;;;14.08;70.26;101750.91;4931490;28;45467;-74
2021/10/06 08:41:12;;;;;;;;;3.00;2.00;;;;;14.10;69.84;101743.84;4935064;28;56690;-74
2021/10/06 08:43:40;;;;;;;;;3.67;2.00;;;;;14.16;69.64;101743.91;4947560;28;50623;-74
2021/10/06 08:46:05;;;;;;;;;1.00;1.00;;;;;14.22;69.98;101742.19;4951528;28;45470;-75
2021/10/06 08:48:30;;;;;;;;;2.00;1.33;;;;;14.21;69.08;101743.97;4934548;28;45489;-77
2021/10/06 08:50:56;;;;;;;;;4.33;0.33;;;;;14.26;69.20;101739.59;4954841;28;56732;-78
2021/10/06 08:53:21;;;;;;;;;4.33;1.00;;;;;14.30;69.11;101752.03;4940838;28;45491;-76
2021/10/06 08:55:47;;;;;;;;;1.00;1.00;;;;;14.35;68.85;101741.47;4932581;28;45428;-75
2021/10/06 08:58:12;;;;;;;;;3.00;1.00;;;;;14.39;69.53;101748.59;4968515;28;45444;-75
2021/10/06 09:00:52;;;;;;;;;4.00;2.00;;;;;14.41;69.53;101757.47;4935934;28;47238;-74
2021/10/06 09:03:27;;;;;;;;;5.00;2.33;;;;;14.50;68.39;101764.69;4933853;28;45541;-74
2021/10/06 09:06:00;;;;;;;;;2.00;1.00;;;;;14.55;68.38;101755.00;4948070;28;45390;-74
2021/10/06 09:08:25;;;;;;;;;4.00;1.00;;;;;14.59;69.35;101755.00;4934092;28;46381;-73
2021/10/06 09:10:51;;;;;;;;;3.00;1.00;;;;;14.63;68.09;101759.47;4941908;28;46325;-76
2021/10/06 09:13:16;;;;;;;;;6.33;1.00;;;;;14.68;67.82;101767.50;4916220;28;45420;-77
2021/10/06 09:15:51;;;;;;;;;7.33;1.00;;;;;14.68;67.91;101757.75;4930222;28;51968;-74
2021/10/06 09:18:18;;;;;;;;;1.67;1.00;;;;;14.73;67.71;101773.75;4966793;28;45459;-75
2021/10/06 09:20:44;;;;;;;;;1.00;0.67;;;;;14.78;67.27;101763.16;4943681;28;46626;-76
2021/10/06 09:23:11;;;;;;;;;11.33;3.33;;;;;14.81;67.24;101764.09;4961832;28;46427;-76
2021/10/06 09:26:10;;;;;;;;;4.00;1.00;;;;;14.87;66.68;101772.09;4947313;28;45338;-75
2021/10/06 09:28:37;;;;;;;;;2.67;1.00;;;;;14.94;67.28;101767.72;4922401;28;45552;-75
2021/10/06 09:31:05;;;;;;;;;5.00;1.00;;;;;14.99;66.92;101773.09;4973502;28;45742;-78
2021/10/06 09:33:38;;;;;;;;;2.00;1.00;;;;;14.98;66.18;101768.66;4950135;28;45510;-74
2021/10/06 09:36:11;;;;;;;;;3.33;1.00;;;;;15.13;66.41;101768.78;4942673;28;45571;-75
2021/10/06 09:38:53;;;;;;;;;5.00;2.00;;;;;15.23;65.78;101769.69;4936232;28;45994;-75
2021/10/06 09:41:37;;;;;;;;;4.00;1.00;;;;;15.29;65.96;101764.44;4946185;28;47034;-75
2021/10/06 09:44:08;;;;;;;;;4.67;1.00;;;;;15.39;65.46;101777.81;4961350;28;45388;-76
2021/10/06 09:46:39;;;;;;;;;2.67;1.33;;;;;15.50;65.92;101775.22;4936919;28;45346;-79
2021/10/06 09:49:19;;;;;;;;;4.67;2.00;;;;;15.52;66.26;101780.53;4936046;28;45487;-80
2021/10/06 09:51:45;;;;;;;;;1.33;1.00;;;;;15.56;64.72;101772.59;4932505;28;48238;-83
2021/10/06 09:54:10;;;;;;;;;0.00;0.00;;;;;15.65;65.89;101783.31;4947652;28;45530;-80
2021/10/06 09:56:41;;;;;;;;;2.67;1.33;;;;;15.76;65.71;101774.47;4935767;28;50381;-82
2021/10/06 09:59:06;;;;;;;;;2.00;1.00;;;;;15.89;65.25;101784.31;4941601;28;45510;-79
2021/10/06 10:01:36;;;;;;;;;5.00;2.00;;;;;16.01;64.67;101783.47;4923301;28;57251;-82
2021/10/06 10:04:03;;;;;;;;;5.67;1.00;;;;;16.08;64.09;101771.94;5008855;28;45490;-79
2021/10/06 10:06:28;;;;;;;;;1.00;1.00;;;;;16.13;63.77;101778.19;4940592;28;45594;-79
2021/10/06 10:08:53;;;;;;;;;2.33;1.33;;;;;16.17;63.94;101778.19;4949806;28;47686;-78
2021/10/06 10:11:19;;;;;;;;;3.00;1.00;;;;;16.21;63.37;101782.66;4970815;28;46253;-79
2021/10/06 10:13:44;;;;;;;;;3.67;0.67;;;;;16.32;62.53;101788.03;4941370;28;45435;-78
2021/10/06 10:16:10;;;;;;;;;1.00;1.00;;;;;16.36;62.24;101789.81;4969738;28;45403;-77
2021/10/06 10:18:35;;;;;;;;;3.33;2.00;;;;;16.44;62.12;101787.16;4938457;28;48400;-77
2021/10/06 10:21:02;;;;;;;;;1.00;1.00;;;;;16.56;61.75;101788.94;4969999;28;53641;-80
2021/10/06 10:23:27;;;;;;;;;3.67;1.33;;;;;16.62;61.56;101799.63;4927731;28;45628;-75
2021/10/06 10:25:53;;;;;;;;;1.00;1.00;;;;;16.67;61.00;101788.09;4942802;28;45906;-77
2021/10/06 10:28:23;;;;;;;;;5.00;1.67;;;;;16.80;60.62;101793.47;4961595;28;52643;-80
2021/10/06 10:30:54;;;;;;;;;2.00;2.00;;;;;16.91;60.08;101808.59;4932931;28;46398;-78
2021/10/06 10:33:42;;;;;;;;;1.00;1.00;;;;;17.09;60.01;101801.47;4939676;28;46545;-78
2021/10/06 10:36:29;;;;;;;;;3.00;0.00;;;;;17.25;60.05;101797.91;4957017;28;45498;-78
2021/10/06 10:38:56;;;;;;;;;1.00;1.00;;;;;17.33;57.63;101814.81;4953681;28;46310;-80
2021/10/06 10:41:44;;;;;;;;;5.33;1.33;;;;;17.41;57.27;101806.78;4936452;28;45466;-79
2021/10/06 10:44:09;;;;;;;;;3.00;1.00;;;;;17.45;58.00;101803.22;4941238;28;45443;-79
2021/10/06 10:47:00;;;;;;;;;3.00;1.00;;;;;17.40;58.15;101803.22;4971379;28;45225;-81
2021/10/06 10:49:25;;;;;;;;;1.67;1.00;;;;;17.38;57.60;101813.03;4970214;28;45299;-78
2021/10/06 10:51:58;;;;;;;;;3.33;1.67;;;;;17.33;57.14;101816.59;4935968;28;46386;-80
2021/10/06 10:54:38;;;;;;;;;4.00;1.00;;;;;17.24;58.05;101802.34;4962152;28;45634;-79
2021/10/06 10:57:25;;;;;;;;;1.00;1.00;;;;;17.19;56.96;101824.59;4959508;28;45516;-81
2021/10/06 10:59:52;;;;;;;;;4.33;1.00;;;;;17.12;57.14;101821.03;4930882;28;45365;-80
2021/10/06 11:02:21;;;;;;;;;2.33;1.00;;;;;17.08;57.50;101821.03;4937781;28;48551;-79
2021/10/06 11:04:56;;;;;;;;;2.33;1.00;;;;;17.01;57.06;101806.81;4943947;28;45561;-79
2021/10/06 11:07:21;;;;;;;;;2.33;1.33;;;;;17.08;57.07;101818.38;4937747;28;45311;-79
2021/10/06 11:09:50;;;;;;;;;2.00;1.00;;;;;17.05;57.12;101800.59;4980919;28;45527;-79
2021/10/06 11:12:15;;;;;;;;;5.00;1.33;;;;;17.00;56.76;101799.72;4936218;28;47221;-80
2021/10/06 11:14:44;;;;;;;;;1.00;1.00;;;;;17.06;56.27;101810.38;4935589;28;47024;-82
2021/10/06 11:17:11;;;;;;;;;4.00;2.00;;;;;17.14;56.04;101807.69;4934537;28;45701;-78
2021/10/06 11:19:47;;;;;;;;;4.33;1.67;;;;;17.17;56.65;101808.59;4936275;28;45359;-76
2021/10/06 11:22:21;;;;;;;;;4.00;1.00;;;;;17.18;56.30;101821.03;4938713;28;47413;-80